sensor_id;sensor_type;location;lat;lon;timestamp;pressure;altitude;pressure_sealevel;temperature;humidity
59417;BME280;45222;52.458;20.914;2023-02-12T00:02:08;102005.19;;;0.22;77.88
59417;BME280;45222;52.458;20.914;2023-02-12T00:06:00;102017.09;;;0.22;77.86
59417;BME280;45222;52.458;20.914;2023-02-12T00:09:49;102021.84;;;0.23;77.86
59417;BME280;45222;52.458;20.914;2023-02-12T00:13:37;102032.30;;;0.21;78.07
59417;BME280;45222;52.458;20.914;2023-02-12T00:17:25;102039.08;;;0.19;78.23
59417;BME280;45222;52.458;20.914;2023-02-12T00:21:13;102051.14;;;0.19;78.30
59417;BME280;45222;52.458;20.914;2023-02-12T00:25:02;102054.48;;;0.19;78.25
59417;BME280;45222;52.458;20.914;2023-02-12T00:28:51;102057.25;;;0.18;77.68
59417;BME280;45222;52.458;20.914;2023-02-12T00:32:39;102058.98;;;0.17;77.85
59417;BME280;45222;52.458;20.914;2023-02-12T00:36:29;102061.52;;;0.21;78.09
59417;BME280;45222;52.458;20.914;2023-02-12T00:40:18;102067.36;;;0.24;77.67
59417;BME280;45222;52.458;20.914;2023-02-12T00:44:07;102075.89;;;0.31;77.66
59417;BME280;45222;52.458;20.914;2023-02-12T00:47:55;102077.33;;;0.32;77.34
59417;BME280;45222;52.458;20.914;2023-02-12T00:51:43;102088.88;;;0.32;77.00
59417;BME280;45222;52.458;20.914;2023-02-12T00:55:31;102089.07;;;0.24;76.75
59417;BME280;45222;52.458;20.914;2023-02-12T00:59:20;102096.65;;;0.19;76.33
59417;BME280;45222;52.458;20.914;2023-02-12T01:03:08;102106.14;;;0.14;76.28
59417;BME280;45222;52.458;20.914;2023-02-12T01:06:56;102102.88;;;0.08;76.48
59417;BME280;45222;52.458;20.914;2023-02-12T01:10:45;102103.89;;;0.07;76.79
59417;BME280;45222;52.458;20.914;2023-02-12T01:14:40;102102.98;;;0.05;77.01
59417;BME280;45222;52.458;20.914;2023-02-12T01:18:28;102116.98;;;0.05;77.01
59417;BME280;45222;52.458;20.914;2023-02-12T01:22:16;102126.85;;;0.01;76.93
59417;BME280;45222;52.458;20.914;2023-02-12T01:26:04;102127.48;;;-0.02;76.95
59417;BME280;45222;52.458;20.914;2023-02-12T01:29:56;102127.51;;;-0.02;76.93
59417;BME280;45222;52.458;20.914;2023-02-12T01:33:45;102137.64;;;-0.02;77.09
59417;BME280;45222;52.458;20.914;2023-02-12T01:37:35;102155.52;;;-0.00;77.14
59417;BME280;45222;52.458;20.914;2023-02-12T01:41:22;102152.69;;;-0.02;77.30
59417;BME280;45222;52.458;20.914;2023-02-12T01:45:47;102164.35;;;-0.04;77.35
59417;BME280;45222;52.458;20.914;2023-02-12T01:49:38;102164.53;;;-0.03;77.45
59417;BME280;45222;52.458;20.914;2023-02-12T01:53:30;102167.23;;;0.01;77.64
59417;BME280;45222;52.458;20.914;2023-02-12T01:57:20;102177.71;;;-0.01;77.56
59417;BME280;45222;52.458;20.914;2023-02-12T02:01:11;102184.14;;;-0.03;77.67
59417;BME280;45222;52.458;20.914;2023-02-12T02:05:02;102182.71;;;-0.04;77.55
59417;BME280;45222;52.458;20.914;2023-02-12T02:08:51;102188.29;;;-0.05;77.46
59417;BME280;45222;52.458;20.914;2023-02-12T02:12:39;102203.20;;;-0.03;77.50
59417;BME280;45222;52.458;20.914;2023-02-12T02:16:49;102209.59;;;-0.06;76.33
59417;BME280;45222;52.458;20.914;2023-02-12T02:25:38;102226.27;;;-0.10;75.02
59417;BME280;45222;52.458;20.914;2023-02-12T02:34:27;102236.77;;;-0.10;74.37
59417;BME280;45222;52.458;20.914;2023-02-12T02:38:24;102247.57;;;-0.12;74.49
59417;BME280;45222;52.458;20.914;2023-02-12T02:42:18;102248.33;;;-0.10;74.14
59417;BME280;45222;52.458;20.914;2023-02-12T02:46:11;102251.89;;;-0.07;73.41
59417;BME280;45222;52.458;20.914;2023-02-12T02:50:04;102269.58;;;-0.06;73.76
59417;BME280;45222;52.458;20.914;2023-02-12T02:53:56;102284.19;;;-0.09;74.14
59417;BME280;45222;52.458;20.914;2023-02-12T02:57:50;102291.73;;;-0.08;74.32
59417;BME280;45222;52.458;20.914;2023-02-12T03:01:41;102294.77;;;-0.06;74.04
59417;BME280;45222;52.458;20.914;2023-02-12T03:05:33;102311.19;;;-0.06;73.89
59417;BME280;45222;52.458;20.914;2023-02-12T03:09:25;102318.42;;;-0.10;74.15
59417;BME280;45222;52.458;20.914;2023-02-12T03:13:17;102322.23;;;-0.12;74.42
59417;BME280;45222;52.458;20.914;2023-02-12T03:17:09;102326.98;;;-0.11;74.69
59417;BME280;45222;52.458;20.914;2023-02-12T03:21:03;102333.11;;;-0.11;74.85
59417;BME280;45222;52.458;20.914;2023-02-12T03:24:57;102338.81;;;-0.14;74.76
59417;BME280;45222;52.458;20.914;2023-02-12T03:28:47;102349.38;;;-0.17;74.95
59417;BME280;45222;52.458;20.914;2023-02-12T03:32:40;102346.35;;;-0.19;75.01
59417;BME280;45222;52.458;20.914;2023-02-12T03:36:34;102347.30;;;-0.16;74.80
59417;BME280;45222;52.458;20.914;2023-02-12T03:40:29;102358.64;;;-0.17;75.00
59417;BME280;45222;52.458;20.914;2023-02-12T03:44:27;102370.66;;;-0.19;74.87
59417;BME280;45222;52.458;20.914;2023-02-12T03:48:25;102389.23;;;-0.18;75.03
59417;BME280;45222;52.458;20.914;2023-02-12T03:52:13;102396.55;;;-0.19;75.04
59417;BME280;45222;52.458;20.914;2023-02-12T03:56:05;102401.41;;;-0.20;75.30
59417;BME280;45222;52.458;20.914;2023-02-12T03:59:55;102403.19;;;-0.19;75.26
59417;BME280;45222;52.458;20.914;2023-02-12T04:03:44;102408.23;;;-0.20;75.10
59417;BME280;45222;52.458;20.914;2023-02-12T04:07:32;102412.95;;;-0.20;74.75
59417;BME280;45222;52.458;20.914;2023-02-12T04:11:27;102419.02;;;-0.22;75.01
59417;BME280;45222;52.458;20.914;2023-02-12T04:15:31;102419.54;;;-0.22;74.72
59417;BME280;45222;52.458;20.914;2023-02-12T04:19:28;102417.55;;;-0.24;74.71
59417;BME280;45222;52.458;20.914;2023-02-12T04:23:34;102418.56;;;-0.25;74.82
59417;BME280;45222;52.458;20.914;2023-02-12T04:27:32;102420.41;;;-0.22;74.95
59417;BME280;45222;52.458;20.914;2023-02-12T04:31:26;102432.42;;;-0.24;74.90
59417;BME280;45222;52.458;20.914;2023-02-12T04:35:21;102435.14;;;-0.27;75.05
59417;BME280;45222;52.458;20.914;2023-02-12T04:39:14;102434.91;;;-0.29;74.60
59417;BME280;45222;52.458;20.914;2023-02-12T04:43:03;102436.14;;;-0.35;74.72
59417;BME280;45222;52.458;20.914;2023-02-12T04:46:51;102442.00;;;-0.37;74.70
59417;BME280;45222;52.458;20.914;2023-02-12T04:50:41;102447.11;;;-0.42;74.79
59417;BME280;45222;52.458;20.914;2023-02-12T04:54:29;102455.06;;;-0.44;74.79
59417;BME280;45222;52.458;20.914;2023-02-12T04:58:17;102464.67;;;-0.45;75.21
59417;BME280;45222;52.458;20.914;2023-02-12T05:02:05;102468.31;;;-0.46;75.13
59417;BME280;45222;52.458;20.914;2023-02-12T05:05:53;102480.42;;;-0.50;74.60
59417;BME280;45222;52.458;20.914;2023-02-12T05:09:41;102489.34;;;-0.56;74.59
59417;BME280;45222;52.458;20.914;2023-02-12T05:13:29;102493.14;;;-0.57;74.73
59417;BME280;45222;52.458;20.914;2023-02-12T05:17:17;102498.48;;;-0.59;74.61
59417;BME280;45222;52.458;20.914;2023-02-12T05:21:06;102507.85;;;-0.62;74.60
59417;BME280;45222;52.458;20.914;2023-02-12T05:24:54;102506.05;;;-0.69;74.67
59417;BME280;45222;52.458;20.914;2023-02-12T05:28:42;102510.40;;;-0.70;74.61
59417;BME280;45222;52.458;20.914;2023-02-12T05:32:30;102516.08;;;-0.67;74.82
59417;BME280;45222;52.458;20.914;2023-02-12T05:36:19;102517.27;;;-0.68;74.83
59417;BME280;45222;52.458;20.914;2023-02-12T05:40:10;102523.48;;;-0.65;74.76
59417;BME280;45222;52.458;20.914;2023-02-12T05:43:58;102533.48;;;-0.64;75.04
59417;BME280;45222;52.458;20.914;2023-02-12T05:47:46;102535.39;;;-0.64;75.02
59417;BME280;45222;52.458;20.914;2023-02-12T05:51:34;102539.89;;;-0.65;74.93
59417;BME280;45222;52.458;20.914;2023-02-12T05:55:22;102550.84;;;-0.72;75.02
59417;BME280;45222;52.458;20.914;2023-02-12T05:59:15;102560.35;;;-0.81;75.19
59417;BME280;45222;52.458;20.914;2023-02-12T06:03:03;102568.27;;;-0.89;75.53
59417;BME280;45222;52.458;20.914;2023-02-12T06:06:51;102573.75;;;-0.97;75.94
59417;BME280;45222;52.458;20.914;2023-02-12T06:10:41;102578.20;;;-1.05;76.04
59417;BME280;45222;52.458;20.914;2023-02-12T06:14:29;102579.59;;;-1.15;76.20
59417;BME280;45222;52.458;20.914;2023-02-12T06:18:17;102588.38;;;-1.24;75.99
59417;BME280;45222;52.458;20.914;2023-02-12T06:22:05;102585.29;;;-1.27;76.37
59417;BME280;45222;52.458;20.914;2023-02-12T06:25:56;102595.44;;;-1.31;76.45
59417;BME280;45222;52.458;20.914;2023-02-12T06:29:44;102602.71;;;-1.32;76.96
59417;BME280;45222;52.458;20.914;2023-02-12T06:33:32;102603.02;;;-1.29;77.30
59417;BME280;45222;52.458;20.914;2023-02-12T06:37:21;102611.41;;;-1.29;77.41
59417;BME280;45222;52.458;20.914;2023-02-12T06:41:09;102615.55;;;-1.30;77.22
59417;BME280;45222;52.458;20.914;2023-02-12T06:44:57;102620.83;;;-1.34;77.22
59417;BME280;45222;52.458;20.914;2023-02-12T06:48:45;102627.67;;;-1.37;77.32
59417;BME280;45222;52.458;20.914;2023-02-12T06:52:33;102630.48;;;-1.47;77.30
59417;BME280;45222;52.458;20.914;2023-02-12T06:56:22;102632.23;;;-1.60;77.67
59417;BME280;45222;52.458;20.914;2023-02-12T07:00:09;102637.02;;;-1.63;77.91
59417;BME280;45222;52.458;20.914;2023-02-12T07:03:59;102641.89;;;-1.64;78.00
59417;BME280;45222;52.458;20.914;2023-02-12T07:07:48;102646.44;;;-1.63;78.22
59417;BME280;45222;52.458;20.914;2023-02-12T07:11:36;102645.20;;;-1.59;78.25
59417;BME280;45222;52.458;20.914;2023-02-12T07:15:27;102649.11;;;-1.48;77.98
59417;BME280;45222;52.458;20.914;2023-02-12T07:19:23;102646.69;;;-1.33;78.10
59417;BME280;45222;52.458;20.914;2023-02-12T07:23:14;102648.46;;;-1.13;78.13
59417;BME280;45222;52.458;20.914;2023-02-12T07:27:02;102650.83;;;-0.96;78.01
59417;BME280;45222;52.458;20.914;2023-02-12T07:30:50;102645.89;;;-0.77;77.90
59417;BME280;45222;52.458;20.914;2023-02-12T07:34:38;102645.79;;;-0.60;77.64
59417;BME280;45222;52.458;20.914;2023-02-12T07:38:26;102650.30;;;-0.46;77.11
59417;BME280;45222;52.458;20.914;2023-02-12T07:42:14;102650.70;;;-0.34;76.80
59417;BME280;45222;52.458;20.914;2023-02-12T07:46:09;102656.15;;;-0.22;76.44
59417;BME280;45222;52.458;20.914;2023-02-12T07:49:57;102663.80;;;-0.12;75.96
59417;BME280;45222;52.458;20.914;2023-02-12T07:53:46;102659.69;;;-0.04;75.46
59417;BME280;45222;52.458;20.914;2023-02-12T07:57:35;102667.17;;;0.06;75.18
59417;BME280;45222;52.458;20.914;2023-02-12T08:01:27;102670.73;;;0.13;74.95
59417;BME280;45222;52.458;20.914;2023-02-12T08:05:15;102672.32;;;0.19;74.84
59417;BME280;45222;52.458;20.914;2023-02-12T08:09:06;102670.71;;;0.24;74.65
59417;BME280;45222;52.458;20.914;2023-02-12T08:12:55;102678.11;;;0.31;74.35
59417;BME280;45222;52.458;20.914;2023-02-12T08:16:44;102688.32;;;0.39;74.52
59417;BME280;45222;52.458;20.914;2023-02-12T08:20:34;102689.26;;;0.47;74.49
59417;BME280;45222;52.458;20.914;2023-02-12T08:24:22;102698.43;;;0.60;74.52
59417;BME280;45222;52.458;20.914;2023-02-12T08:28:11;102699.23;;;0.70;74.06
59417;BME280;45222;52.458;20.914;2023-02-12T08:32:00;102698.90;;;0.82;73.92
59417;BME280;45222;52.458;20.914;2023-02-12T08:35:48;102689.70;;;0.91;72.89
59417;BME280;45222;52.458;20.914;2023-02-12T08:39:36;102688.34;;;0.98;72.87
59417;BME280;45222;52.458;20.914;2023-02-12T08:43:24;102680.51;;;1.00;72.19
59417;BME280;45222;52.458;20.914;2023-02-12T08:47:13;102678.70;;;1.05;72.05
59417;BME280;45222;52.458;20.914;2023-02-12T08:51:09;102687.99;;;1.11;72.00
59417;BME280;45222;52.458;20.914;2023-02-12T08:54:58;102687.77;;;1.22;71.79
59417;BME280;45222;52.458;20.914;2023-02-12T08:58:46;102690.23;;;1.29;71.35
59417;BME280;45222;52.458;20.914;2023-02-12T09:02:34;102689.58;;;1.31;71.11
59417;BME280;45222;52.458;20.914;2023-02-12T09:09:31;102694.83;;;1.50;70.80
59417;BME280;45222;52.458;20.914;2023-02-12T09:13:19;102699.06;;;1.64;69.90
59417;BME280;45222;52.458;20.914;2023-02-12T09:17:07;102703.54;;;1.75;68.90
59417;BME280;45222;52.458;20.914;2023-02-12T09:20:59;102711.79;;;1.82;69.83
59417;BME280;45222;52.458;20.914;2023-02-12T09:24:47;102715.04;;;1.86;69.40
59417;BME280;45222;52.458;20.914;2023-02-12T09:28:35;102719.96;;;1.85;69.33
59417;BME280;45222;52.458;20.914;2023-02-12T09:32:23;102726.88;;;1.90;68.82
59417;BME280;45222;52.458;20.914;2023-02-12T09:36:14;102729.06;;;1.93;68.40
59417;BME280;45222;52.458;20.914;2023-02-12T09:40:02;102728.12;;;1.97;68.26
59417;BME280;45222;52.458;20.914;2023-02-12T09:43:54;102722.98;;;1.95;68.54
59417;BME280;45222;52.458;20.914;2023-02-12T09:47:49;102716.58;;;1.98;68.20
59417;BME280;45222;52.458;20.914;2023-02-12T09:51:44;102716.09;;;2.07;68.17
59417;BME280;45222;52.458;20.914;2023-02-12T09:55:36;102710.54;;;2.17;67.76
59417;BME280;45222;52.458;20.914;2023-02-12T09:59:29;102714.23;;;2.19;67.71
59417;BME280;45222;52.458;20.914;2023-02-12T10:03:19;102718.04;;;2.23;67.59
59417;BME280;45222;52.458;20.914;2023-02-12T10:07:17;102722.05;;;2.29;67.49
59417;BME280;45222;52.458;20.914;2023-02-12T10:11:19;102721.18;;;2.36;67.83
59417;BME280;45222;52.458;20.914;2023-02-12T10:15:25;102721.42;;;2.47;67.26
59417;BME280;45222;52.458;20.914;2023-02-12T10:19:27;102735.55;;;2.59;66.56
59417;BME280;45222;52.458;20.914;2023-02-12T10:24:01;102731.66;;;2.58;66.60
59417;BME280;45222;52.458;20.914;2023-02-12T10:27:55;102719.88;;;2.56;65.82
59417;BME280;45222;52.458;20.914;2023-02-12T10:31:46;102713.10;;;2.52;66.68
59417;BME280;45222;52.458;20.914;2023-02-12T10:35:36;102712.35;;;2.50;66.23
59417;BME280;45222;52.458;20.914;2023-02-12T10:39:34;102712.84;;;2.48;65.99
59417;BME280;45222;52.458;20.914;2023-02-12T10:43:23;102712.33;;;2.49;65.84
59417;BME280;45222;52.458;20.914;2023-02-12T10:47:16;102720.23;;;2.57;65.58
59417;BME280;45222;52.458;20.914;2023-02-12T10:51:15;102722.89;;;2.66;65.68
59417;BME280;45222;52.458;20.914;2023-02-12T10:55:27;102731.78;;;2.71;65.66
59417;BME280;45222;52.458;20.914;2023-02-12T10:59:22;102723.21;;;2.81;65.40
59417;BME280;45222;52.458;20.914;2023-02-12T11:03:22;102720.80;;;2.83;65.31
59417;BME280;45222;52.458;20.914;2023-02-12T11:07:10;102722.58;;;2.84;64.66
59417;BME280;45222;52.458;20.914;2023-02-12T11:11:05;102723.39;;;2.81;63.94
59417;BME280;45222;52.458;20.914;2023-02-12T11:14:55;102723.38;;;2.80;64.75
59417;BME280;45222;52.458;20.914;2023-02-12T11:18:44;102726.88;;;2.80;64.72
59417;BME280;45222;52.458;20.914;2023-02-12T11:22:49;102722.11;;;2.86;64.96
59417;BME280;45222;52.458;20.914;2023-02-12T11:26:37;102714.79;;;2.90;65.05
59417;BME280;45222;52.458;20.914;2023-02-12T11:30:26;102714.69;;;2.93;65.34
59417;BME280;45222;52.458;20.914;2023-02-12T11:34:17;102706.56;;;3.00;65.30
59417;BME280;45222;52.458;20.914;2023-02-12T11:38:14;102698.80;;;3.07;65.11
59417;BME280;45222;52.458;20.914;2023-02-12T11:42:14;102698.38;;;3.13;65.05
59417;BME280;45222;52.458;20.914;2023-02-12T11:46:05;102692.48;;;3.17;65.01
59417;BME280;45222;52.458;20.914;2023-02-12T11:49:56;102695.73;;;3.21;64.32
59417;BME280;45222;52.458;20.914;2023-02-12T11:53:49;102692.59;;;3.22;64.15
59417;BME280;45222;52.458;20.914;2023-02-12T11:57:43;102693.44;;;3.30;63.83
59417;BME280;45222;52.458;20.914;2023-02-12T12:01:34;102692.58;;;3.40;64.44
59417;BME280;45222;52.458;20.914;2023-02-12T12:05:29;102684.33;;;3.52;64.20
59417;BME280;45222;52.458;20.914;2023-02-12T12:09:23;102680.95;;;3.59;64.57
59417;BME280;45222;52.458;20.914;2023-02-12T12:13:15;102672.80;;;3.76;64.72
59417;BME280;45222;52.458;20.914;2023-02-12T12:17:12;102657.70;;;3.89;64.68
59417;BME280;45222;52.458;20.914;2023-02-12T12:21:23;102658.69;;;3.85;63.15
59417;BME280;45222;52.458;20.914;2023-02-12T12:25:22;102662.55;;;3.74;63.94
59417;BME280;45222;52.458;20.914;2023-02-12T12:29:18;102656.85;;;3.70;63.61
59417;BME280;45222;52.458;20.914;2023-02-12T12:33:16;102659.08;;;3.66;63.65
59417;BME280;45222;52.458;20.914;2023-02-12T12:37:23;102661.68;;;3.64;63.52
59417;BME280;45222;52.458;20.914;2023-02-12T12:41:20;102666.65;;;3.56;63.31
59417;BME280;45222;52.458;20.914;2023-02-12T12:45:37;102662.09;;;3.46;63.66
59417;BME280;45222;52.458;20.914;2023-02-12T12:49:37;102654.42;;;3.51;63.88
59417;BME280;45222;52.458;20.914;2023-02-12T12:53:40;102652.19;;;3.54;64.40
59417;BME280;45222;52.458;20.914;2023-02-12T12:57:45;102654.65;;;3.64;64.92
59417;BME280;45222;52.458;20.914;2023-02-12T13:01:51;102649.02;;;3.75;64.98
59417;BME280;45222;52.458;20.914;2023-02-12T13:05:56;102642.54;;;3.87;65.58
59417;BME280;45222;52.458;20.914;2023-02-12T13:09:55;102640.95;;;3.99;65.50
59417;BME280;45222;52.458;20.914;2023-02-12T13:13:48;102636.29;;;4.05;65.21
59417;BME280;45222;52.458;20.914;2023-02-12T13:17:41;102636.88;;;4.09;64.52
59417;BME280;45222;52.458;20.914;2023-02-12T13:21:39;102636.59;;;4.02;64.08
59417;BME280;45222;52.458;20.914;2023-02-12T13:25:29;102634.56;;;3.96;63.81
59417;BME280;45222;52.458;20.914;2023-02-12T13:29:23;102634.26;;;3.86;64.15
59417;BME280;45222;52.458;20.914;2023-02-12T13:33:16;102647.36;;;3.82;64.13
59417;BME280;45222;52.458;20.914;2023-02-12T13:37:08;102650.80;;;3.76;64.08
59417;BME280;45222;52.458;20.914;2023-02-12T13:41:04;102647.70;;;3.69;64.53
59417;BME280;45222;52.458;20.914;2023-02-12T13:44:58;102640.34;;;3.60;64.66
59417;BME280;45222;52.458;20.914;2023-02-12T13:48:56;102641.95;;;3.52;64.81
59417;BME280;45222;52.458;20.914;2023-02-12T13:52:52;102643.84;;;3.49;65.19
59417;BME280;45222;52.458;20.914;2023-02-12T13:56:44;102640.93;;;3.44;65.17
59417;BME280;45222;52.458;20.914;2023-02-12T14:00:59;102643.77;;;3.35;65.51
59417;BME280;45222;52.458;20.914;2023-02-12T14:04:54;102647.55;;;3.31;65.65
59417;BME280;45222;52.458;20.914;2023-02-12T14:08:48;102648.52;;;3.26;66.01
59417;BME280;45222;52.458;20.914;2023-02-12T14:12:39;102649.75;;;3.25;65.95
59417;BME280;45222;52.458;20.914;2023-02-12T14:16:39;102645.41;;;3.29;66.26
59417;BME280;45222;52.458;20.914;2023-02-12T14:20:32;102643.48;;;3.28;65.96
59417;BME280;45222;52.458;20.914;2023-02-12T14:24:50;102638.77;;;3.21;65.83
59417;BME280;45222;52.458;20.914;2023-02-12T14:28:51;102645.05;;;3.09;65.97
59417;BME280;45222;52.458;20.914;2023-02-12T14:33:23;102645.67;;;2.96;65.97
59417;BME280;45222;52.458;20.914;2023-02-12T14:37:16;102642.61;;;2.83;66.27
59417;BME280;45222;52.458;20.914;2023-02-12T14:41:21;102645.35;;;2.71;66.48
59417;BME280;45222;52.458;20.914;2023-02-12T14:45:31;102638.80;;;2.52;66.81
59417;BME280;45222;52.458;20.914;2023-02-12T14:49:23;102644.23;;;2.35;66.96
59417;BME280;45222;52.458;20.914;2023-02-12T14:53:24;102643.73;;;2.20;67.25
59417;BME280;45222;52.458;20.914;2023-02-12T14:57:23;102647.15;;;2.08;67.70
59417;BME280;45222;52.458;20.914;2023-02-12T15:01:12;102645.03;;;1.93;68.02
59417;BME280;45222;52.458;20.914;2023-02-12T15:05:03;102651.56;;;1.80;68.33
59417;BME280;45222;52.458;20.914;2023-02-12T15:08:55;102652.26;;;1.72;68.76
59417;BME280;45222;52.458;20.914;2023-02-12T15:12:47;102657.04;;;1.68;69.25
59417;BME280;45222;52.458;20.914;2023-02-12T15:16:46;102658.92;;;1.59;69.63
59417;BME280;45222;52.458;20.914;2023-02-12T15:20:39;102658.23;;;1.53;69.91
59417;BME280;45222;52.458;20.914;2023-02-12T15:24:31;102656.45;;;1.44;69.87
59417;BME280;45222;52.458;20.914;2023-02-12T15:28:22;102666.34;;;1.34;69.96
59417;BME280;45222;52.458;20.914;2023-02-12T15:32:17;102673.10;;;1.25;70.01
59417;BME280;45222;52.458;20.914;2023-02-12T15:36:08;102671.73;;;1.13;70.35
59417;BME280;45222;52.458;20.914;2023-02-12T15:39:59;102667.73;;;1.01;70.55
59417;BME280;45222;52.458;20.914;2023-02-12T15:43:49;102662.02;;;0.90;70.93
59417;BME280;45222;52.458;20.914;2023-02-12T15:47:37;102656.73;;;0.77;71.22
59417;BME280;45222;52.458;20.914;2023-02-12T15:51:30;102653.27;;;0.67;71.40
59417;BME280;45222;52.458;20.914;2023-02-12T15:55:24;102652.88;;;0.60;71.83
59417;BME280;45222;52.458;20.914;2023-02-12T15:59:19;102655.54;;;0.55;72.25
59417;BME280;45222;52.458;20.914;2023-02-12T16:03:20;102652.10;;;0.50;72.72
59417;BME280;45222;52.458;20.914;2023-02-12T16:07:10;102641.42;;;0.45;72.94
59417;BME280;45222;52.458;20.914;2023-02-12T16:11:00;102645.77;;;0.32;72.95
59417;BME280;45222;52.458;20.914;2023-02-12T16:14:57;102645.48;;;0.23;73.11
59417;BME280;45222;52.458;20.914;2023-02-12T16:19:01;102642.65;;;0.10;73.47
59417;BME280;45222;52.458;20.914;2023-02-12T16:22:50;102642.98;;;-0.02;73.74
59417;BME280;45222;52.458;20.914;2023-02-12T16:26:39;102643.15;;;-0.13;73.54
59417;BME280;45222;52.458;20.914;2023-02-12T16:30:31;102638.02;;;-0.26;73.82
59417;BME280;45222;52.458;20.914;2023-02-12T16:34:30;102631.45;;;-0.34;74.23
59417;BME280;45222;52.458;20.914;2023-02-12T16:42:44;102636.17;;;-0.39;75.04
59417;BME280;45222;52.458;20.914;2023-02-12T16:46:49;102637.45;;;-0.43;75.20
59417;BME280;45222;52.458;20.914;2023-02-12T16:50:44;102638.60;;;-0.45;75.65
59417;BME280;45222;52.458;20.914;2023-02-12T16:54:34;102631.30;;;-0.49;75.66
59417;BME280;45222;52.458;20.914;2023-02-12T16:58:22;102632.77;;;-0.52;75.63
59417;BME280;45222;52.458;20.914;2023-02-12T17:02:13;102631.92;;;-0.57;75.80
59417;BME280;45222;52.458;20.914;2023-02-12T17:06:02;102643.54;;;-0.64;76.15
59417;BME280;45222;52.458;20.914;2023-02-12T17:09:50;102647.85;;;-0.71;76.58
59417;BME280;45222;52.458;20.914;2023-02-12T17:13:40;102659.94;;;-0.75;76.84
59417;BME280;45222;52.458;20.914;2023-02-12T17:17:26;102658.90;;;-0.80;76.95
59417;BME280;45222;52.458;20.914;2023-02-12T17:21:23;102666.92;;;-0.86;77.47
59417;BME280;45222;52.458;20.914;2023-02-12T17:25:13;102658.69;;;-0.91;77.32
59417;BME280;45222;52.458;20.914;2023-02-12T17:29:01;102671.88;;;-0.93;77.24
59417;BME280;45222;52.458;20.914;2023-02-12T17:32:52;102691.70;;;-0.86;77.51
59417;BME280;45222;52.458;20.914;2023-02-12T17:36:40;102698.78;;;-0.79;77.59
59417;BME280;45222;52.458;20.914;2023-02-12T17:40:28;102694.12;;;-0.67;78.08
59417;BME280;45222;52.458;20.914;2023-02-12T17:44:16;102684.32;;;-0.58;78.10
59417;BME280;45222;52.458;20.914;2023-02-12T17:48:05;102666.22;;;-0.50;77.92
59417;BME280;45222;52.458;20.914;2023-02-12T17:51:53;102662.61;;;-0.43;78.03
59417;BME280;45222;52.458;20.914;2023-02-12T17:55:42;102668.56;;;-0.38;78.16
59417;BME280;45222;52.458;20.914;2023-02-12T17:59:30;102669.52;;;-0.35;78.36
59417;BME280;45222;52.458;20.914;2023-02-12T18:03:18;102665.76;;;-0.33;78.64
59417;BME280;45222;52.458;20.914;2023-02-12T18:07:08;102659.24;;;-0.29;78.68
59417;BME280;45222;52.458;20.914;2023-02-12T18:10:56;102662.70;;;-0.25;79.05
59417;BME280;45222;52.458;20.914;2023-02-12T18:14:44;102657.56;;;-0.16;79.09
59417;BME280;45222;52.458;20.914;2023-02-12T18:18:33;102647.21;;;-0.06;79.41
59417;BME280;45222;52.458;20.914;2023-02-12T18:22:22;102644.11;;;0.01;79.62
59417;BME280;45222;52.458;20.914;2023-02-12T18:26:13;102645.75;;;0.08;79.77
59417;BME280;45222;52.458;20.914;2023-02-12T18:30:02;102632.16;;;0.11;79.71
59417;BME280;45222;52.458;20.914;2023-02-12T18:33:50;102624.41;;;0.15;79.75
59417;BME280;45222;52.458;20.914;2023-02-12T18:37:38;102623.55;;;0.15;79.77
59417;BME280;45222;52.458;20.914;2023-02-12T18:41:29;102618.47;;;0.15;79.94
59417;BME280;45222;52.458;20.914;2023-02-12T18:45:17;102617.76;;;0.15;80.13
59417;BME280;45222;52.458;20.914;2023-02-12T18:49:07;102615.40;;;0.17;80.12
59417;BME280;45222;52.458;20.914;2023-02-12T18:52:55;102611.85;;;0.22;80.30
59417;BME280;45222;52.458;20.914;2023-02-12T18:56:44;102609.23;;;0.27;80.48
59417;BME280;45222;52.458;20.914;2023-02-12T19:00:34;102609.77;;;0.34;80.74
59417;BME280;45222;52.458;20.914;2023-02-12T19:04:22;102613.32;;;0.41;80.85
59417;BME280;45222;52.458;20.914;2023-02-12T19:08:12;102610.90;;;0.49;81.00
59417;BME280;45222;52.458;20.914;2023-02-12T19:12:00;102603.21;;;0.56;81.12
59417;BME280;45222;52.458;20.914;2023-02-12T19:15:49;102594.36;;;0.58;81.08
59417;BME280;45222;52.458;20.914;2023-02-12T19:19:37;102587.30;;;0.56;81.03
59417;BME280;45222;52.458;20.914;2023-02-12T19:23:26;102580.88;;;0.52;81.09
59417;BME280;45222;52.458;20.914;2023-02-12T19:27:14;102577.10;;;0.48;81.26
59417;BME280;45222;52.458;20.914;2023-02-12T19:31:11;102575.89;;;0.49;81.43
59417;BME280;45222;52.458;20.914;2023-02-12T19:35:00;102565.92;;;0.55;81.98
59417;BME280;45222;52.458;20.914;2023-02-12T19:38:49;102566.63;;;0.62;82.27
59417;BME280;45222;52.458;20.914;2023-02-12T19:42:37;102566.63;;;0.68;82.43
59417;BME280;45222;52.458;20.914;2023-02-12T19:46:26;102575.41;;;0.75;83.08
59417;BME280;45222;52.458;20.914;2023-02-12T19:54:04;102564.31;;;0.93;82.95
59417;BME280;45222;52.458;20.914;2023-02-12T19:57:53;102559.85;;;0.97;83.29
59417;BME280;45222;52.458;20.914;2023-02-12T20:06:40;102546.50;;;1.02;83.49
59417;BME280;45222;52.458;20.914;2023-02-12T20:10:26;102548.27;;;1.03;83.71
59417;BME280;45222;52.458;20.914;2023-02-12T20:14:12;102555.52;;;1.12;83.88
59417;BME280;45222;52.458;20.914;2023-02-12T20:17:58;102550.29;;;1.19;84.03
59417;BME280;45222;52.458;20.914;2023-02-12T20:21:43;102544.25;;;1.24;84.20
59417;BME280;45222;52.458;20.914;2023-02-12T20:25:29;102543.16;;;1.29;84.14
59417;BME280;45222;52.458;20.914;2023-02-12T20:29:15;102537.81;;;1.33;84.15
59417;BME280;45222;52.458;20.914;2023-02-12T20:33:00;102534.34;;;1.34;84.18